Time;durP1;ratioP1;P1;durP2;ratioP2;P2;SDS_P1;SDS_P2;PMS_P1;PMS_P2;Temp;Humidity;BMP_temperature;BMP_pressure;BME280_temperature;BME280_humidity;BME280_pressure;Samples;Min_cycle;Max_cycle;Signal;HPM_P1;HPM_P2
2020/12/11 00:02:02;;;;;;;13.90;11.67;;;4.70;99.90;;;;;;5053292;28;20172;-53
2020/12/11 00:04:27;;;;;;;14.90;12.23;;;4.70;99.90;;;;;;5053090;28;20258;-58
2020/12/11 00:06:56;;;;;;;14.13;11.63;;;4.70;99.90;;;;;;5053024;28;20230;-55
2020/12/11 00:09:22;;;;;;;16.17;13.00;;;4.70;99.90;;;;;;5055347;28;20201;-51
2020/12/11 00:11:48;;;;;;;14.70;12.23;;;4.50;99.90;;;;;;5057063;28;20646;-52
2020/12/11 00:14:13;;;;;;;14.90;12.23;;;4.50;99.90;;;;;;5056563;28;20175;-59
2020/12/11 00:16:39;;;;;;;13.73;11.30;;;4.50;99.90;;;;;;5056621;28;20210;-58
2020/12/11 00:19:04;;;;;;;15.07;11.77;;;4.50;99.90;;;;;;5057114;28;20178;-59
2020/12/11 00:21:38;;;;;;;14.67;11.53;;;4.50;99.90;;;;;;5056689;28;20206;-55
2020/12/11 00:24:04;;;;;;;15.00;11.87;;;4.50;99.90;;;;;;5056654;28;20560;-56
2020/12/11 00:26:29;;;;;;;16.13;11.37;;;4.60;99.90;;;;;;5056827;28;20263;-61
2020/12/11 00:28:55;;;;;;;14.37;11.60;;;4.60;99.90;;;;;;5056255;28;20168;-52
2020/12/11 00:31:24;;;;;;;13.33;11.60;;;4.60;99.90;;;;;;5056394;28;20492;-51
2020/12/11 00:33:50;;;;;;;15.20;12.33;;;4.60;99.90;;;;;;5056871;28;20251;-55
2020/12/11 00:36:15;;;;;;;15.43;12.23;;;4.60;99.90;;;;;;5056399;28;20179;-60
2020/12/11 00:38:41;;;;;;;13.43;11.50;;;4.60;99.90;;;;;;5056734;28;20171;-52
2020/12/11 00:41:06;;;;;;;15.50;11.93;;;4.60;99.90;;;;;;5056115;28;20206;-54
2020/12/11 00:43:32;;;;;;;15.23;12.30;;;4.60;99.90;;;;;;5055874;28;20557;-61
2020/12/11 00:45:57;;;;;;;15.13;12.43;;;4.60;99.90;;;;;;5055939;28;20522;-57
2020/12/11 00:48:23;;;;;;;15.37;12.30;;;4.70;99.90;;;;;;5055887;28;20604;-53
2020/12/11 00:50:48;;;;;;;14.53;12.20;;;4.80;99.90;;;;;;5055983;28;20171;-58
2020/12/11 00:53:14;;;;;;;15.17;12.00;;;5.90;99.90;;;;;;5056426;28;20175;-59
2020/12/11 00:55:39;;;;;;;15.13;12.37;;;4.70;99.90;;;;;;5055870;28;20179;-61
2020/12/11 00:58:05;;;;;;;15.83;12.50;;;4.60;99.90;;;;;;5055571;28;20199;-61
2020/12/11 01:00:30;;;;;;;14.83;11.90;;;4.60;99.90;;;;;;5056357;28;20289;-52
2020/12/11 01:02:56;;;;;;;13.97;11.70;;;4.70;99.90;;;;;;5055804;28;20167;-58
2020/12/11 01:05:21;;;;;;;14.57;12.00;;;4.80;99.90;;;;;;5055493;28;20519;-55
2020/12/11 01:07:47;;;;;;;14.07;11.47;;;4.80;99.90;;;;;;5055564;28;20252;-58
2020/12/11 01:10:12;;;;;;;15.20;12.70;;;4.90;99.90;;;;;;5055731;28;20179;-51
2020/12/11 01:12:38;;;;;;;13.43;11.00;;;4.90;99.90;;;;;;5055494;28;20252;-56
2020/12/11 01:15:04;;;;;;;15.23;11.73;;;4.80;99.90;;;;;;5055284;28;20179;-51
2020/12/11 01:17:29;;;;;;;14.77;11.93;;;4.70;99.90;;;;;;5056012;28;20274;-57
2020/12/11 01:19:55;;;;;;;14.30;11.67;;;4.70;99.90;;;;;;5054278;28;20206;-55
2020/12/11 01:22:21;;;;;;;14.40;11.70;;;4.80;99.90;;;;;;5055531;28;20183;-52
2020/12/11 01:24:46;;;;;;;14.87;11.80;;;4.80;99.90;;;;;;5055039;28;20164;-53
2020/12/11 01:27:12;;;;;;;15.00;11.40;;;4.90;99.90;;;;;;5055231;28;20191;-57
2020/12/11 01:29:38;;;;;;;14.87;10.77;;;4.90;99.90;;;;;;5055620;28;20347;-53
2020/12/11 01:32:03;;;;;;;12.47;10.83;;;4.90;99.90;;;;;;5055119;28;20189;-53
2020/12/11 01:34:29;;;;;;;14.70;11.40;;;4.90;99.90;;;;;;5055726;28;20179;-53
2020/12/11 01:36:54;;;;;;;13.67;11.90;;;4.90;99.90;;;;;;5055333;28;20578;-60
2020/12/11 01:39:20;;;;;;;13.50;10.93;;;4.90;99.90;;;;;;5055384;28;20523;-53
2020/12/11 01:41:50;;;;;;;12.53;10.63;;;4.90;99.90;;;;;;5055028;28;20257;-57
2020/12/11 01:44:16;;;;;;;13.57;11.77;;;5.00;99.90;;;;;;5054972;28;20160;-51
2020/12/11 01:46:42;;;;;;;13.47;11.10;;;5.00;99.90;;;;;;5055103;28;20187;-57
2020/12/11 01:49:11;;;;;;;13.13;10.23;;;5.00;99.90;;;;;;5055014;28;20241;-60
2020/12/11 01:51:37;;;;;;;13.73;11.17;;;5.00;99.90;;;;;;5054774;28;20175;-61
2020/12/11 01:54:03;;;;;;;12.90;10.63;;;5.00;99.90;;;;;;5054906;28;20258;-59
2020/12/11 01:56:35;;;;;;;13.43;10.73;;;5.00;99.90;;;;;;5054429;28;20542;-56
2020/12/11 01:59:03;;;;;;;13.67;11.33;;;4.90;99.90;;;;;;5054444;28;20167;-52
2020/12/11 02:01:33;;;;;;;14.80;12.30;;;4.90;99.90;;;;;;5054411;28;20593;-53
2020/12/11 02:03:59;;;;;;;14.40;11.87;;;4.80;99.90;;;;;;5055163;28;20175;-61
2020/12/11 02:06:24;;;;;;;15.20;11.97;;;4.80;99.90;;;;;;5054152;28;20178;-54
2020/12/11 02:08:55;;;;;;;12.67;10.73;;;4.70;99.90;;;;;;5054756;28;20176;-59
2020/12/11 02:11:22;;;;;;;12.47;10.43;;;4.60;99.90;;;;;;5054511;28;20197;-59
2020/12/11 02:13:48;;;;;;;13.90;11.07;;;4.70;99.90;;;;;;5054381;28;20542;-60
2020/12/11 02:16:13;;;;;;;13.27;10.60;;;4.80;99.90;;;;;;5054495;28;20674;-56
2020/12/11 02:18:40;;;;;;;12.73;10.50;;;4.80;99.90;;;;;;5054189;28;20209;-53
2020/12/11 02:21:07;;;;;;;13.60;10.93;;;4.80;99.90;;;;;;5055041;28;20249;-59
2020/12/11 02:23:32;;;;;;;13.13;11.17;;;4.80;99.90;;;;;;5054392;28;20202;-61
2020/12/11 02:25:58;;;;;;;12.67;10.17;;;4.80;99.90;;;;;;5054313;28;20175;-58
2020/12/11 02:28:35;;;;;;;12.67;10.93;;;4.70;99.90;;;;;;5054358;28;20543;-61
2020/12/11 02:31:01;;;;;;;13.07;11.00;;;4.80;99.90;;;;;;5053807;28;20179;-58
2020/12/11 02:33:27;;;;;;;12.20;9.83;;;4.80;99.90;;;;;;5054586;28;20262;-58
2020/12/11 02:35:53;;;;;;;13.03;10.20;;;4.70;99.90;;;;;;5054031;28;20263;-60
2020/12/11 02:38:18;;;;;;;11.47;9.43;;;4.50;99.90;;;;;;5054350;28;20194;-51
2020/12/11 02:40:56;;;;;;;11.73;9.17;;;4.50;99.90;;;;;;5054011;28;20225;-53
2020/12/11 02:43:22;;;;;;;13.67;10.63;;;4.50;99.90;;;;;;5053803;28;20175;-53
2020/12/11 02:45:50;;;;;;;13.13;10.50;;;4.40;99.90;;;;;;5053724;28;20183;-51
2020/12/11 02:48:16;;;;;;;13.37;11.30;;;4.50;99.90;;;;;;5054723;28;20202;-56
2020/12/11 02:50:42;;;;;;;12.70;10.33;;;4.50;99.90;;;;;;5053776;28;20179;-61
2020/12/11 02:53:08;;;;;;;11.30;9.10;;;4.40;99.90;;;;;;5054023;28;20225;-58
2020/12/11 02:55:34;;;;;;;10.80;8.90;;;4.30;99.90;;;;;;5053973;28;20174;-60
2020/12/11 02:58:00;;;;;;;9.97;8.03;;;4.20;99.90;;;;;;5053613;28;20195;-61
2020/12/11 03:00:26;;;;;;;10.47;8.20;;;4.30;99.90;;;;;;5054313;28;20221;-59
2020/12/11 03:02:51;;;;;;;11.93;9.70;;;4.40;99.90;;;;;;5054387;28;20167;-54
2020/12/11 03:05:17;;;;;;;11.03;8.73;;;4.50;99.90;;;;;;5053524;28;20175;-60
2020/12/11 03:07:43;;;;;;;11.90;9.03;;;4.50;99.90;;;;;;5053825;28;20729;-55
2020/12/11 03:10:08;;;;;;;13.23;10.07;;;4.60;99.90;;;;;;5054070;28;20185;-55
2020/12/11 03:12:34;;;;;;;11.63;9.67;;;4.70;99.90;;;;;;5053835;28;20273;-50
2020/12/11 03:15:00;;;;;;;12.97;10.13;;;4.50;99.90;;;;;;5053556;28;20175;-54
2020/12/11 03:17:25;;;;;;;15.80;12.17;;;4.30;99.90;;;;;;5054076;28;20782;-57
2020/12/11 03:19:51;;;;;;;13.87;10.90;;;4.20;99.90;;;;;;5053465;28;20302;-51
2020/12/11 03:22:17;;;;;;;14.97;11.13;;;4.00;99.90;;;;;;5053769;28;20272;-59
2020/12/11 03:24:42;;;;;;;12.43;10.03;;;3.90;99.90;;;;;;5053611;28;20178;-54
2020/12/11 03:27:09;;;;;;;12.53;10.20;;;3.90;99.90;;;;;;5053489;28;20191;-59
2020/12/11 03:29:35;;;;;;;12.10;9.63;;;3.90;99.90;;;;;;5053649;28;20171;-57
2020/12/11 03:32:00;;;;;;;11.97;9.13;;;4.00;99.90;;;;;;5054075;28;20273;-57
2020/12/11 03:34:26;;;;;;;11.30;9.40;;;4.00;99.90;;;;;;5053229;28;20199;-55
2020/12/11 03:36:51;;;;;;;11.40;9.63;;;4.10;99.90;;;;;;5053382;28;20317;-50
2020/12/11 03:39:17;;;;;;;11.37;8.93;;;4.10;99.90;;;;;;5053493;28;20598;-55
2020/12/11 03:41:43;;;;;;;12.70;9.80;;;4.10;99.90;;;;;;5053393;28;20614;-59
2020/12/11 03:44:09;;;;;;;12.43;10.03;;;4.00;99.90;;;;;;5055100;28;20662;-60
2020/12/11 03:46:34;;;;;;;12.80;10.03;;;4.00;99.90;;;;;;5057330;28;20196;-52
2020/12/11 03:49:00;;;;;;;14.43;10.30;;;4.00;99.90;;;;;;5057178;28;20178;-52
2020/12/11 03:51:26;;;;;;;13.07;9.97;;;3.80;99.90;;;;;;5057172;28;20183;-52
2020/12/11 03:53:51;;;;;;;14.07;10.43;;;3.50;99.90;;;;;;5057053;28;20197;-56
2020/12/11 03:56:18;;;;;;;13.80;10.53;;;3.40;99.90;;;;;;5039312;28;20662;-53
2020/12/11 03:58:45;;;;;;;13.67;10.23;;;3.30;99.90;;;;;;5056766;28;20248;-58
2020/12/11 04:01:14;;;;;;;13.90;10.07;;;3.30;99.90;;;;;;5057337;28;20546;-54
2020/12/11 04:03:40;;;;;;;15.23;11.53;;;3.40;99.90;;;;;;5056699;28;20538;-51
2020/12/11 04:06:18;;;;;;;14.90;11.10;;;3.50;99.90;;;;;;5056645;28;20190;-58
2020/12/11 04:08:44;;;;;;;15.50;11.73;;;3.60;99.90;;;;;;5057320;28;20175;-58
2020/12/11 04:11:11;;;;;;;14.63;11.23;;;3.70;99.90;;;;;;5057196;28;20193;-59
2020/12/11 04:13:37;;;;;;;13.77;10.57;;;3.80;99.90;;;;;;5056339;28;20522;-59
2020/12/11 04:16:03;;;;;;;14.40;9.80;;;3.80;99.90;;;;;;5056363;28;20173;-55
2020/12/11 04:18:29;;;;;;;12.93;9.90;;;3.90;99.90;;;;;;5056963;28;20199;-56
2020/12/11 04:20:57;;;;;;;14.67;10.60;;;3.90;99.90;;;;;;5055247;28;20206;-58
2020/12/11 04:23:24;;;;;;;14.93;11.47;;;3.80;99.90;;;;;;5053911;28;20206;-51
2020/12/11 04:25:50;;;;;;;14.80;10.77;;;3.60;99.90;;;;;;5056256;28;20175;-57
2020/12/11 04:28:15;;;;;;;14.20;10.77;;;3.50;99.90;;;;;;5056404;28;20292;-61
2020/12/11 04:30:41;;;;;;;15.53;11.77;;;3.50;99.90;;;;;;5056396;28;20179;-51
2020/12/11 04:33:07;;;;;;;18.03;13.03;;;3.50;99.90;;;;;;5056293;28;20171;-50
2020/12/11 04:35:33;;;;;;;16.90;12.50;;;3.70;99.90;;;;;;5056334;28;20171;-56
2020/12/11 04:37:59;;;;;;;16.30;12.47;;;3.70;99.90;;;;;;5056925;28;20194;-53
2020/12/11 04:40:24;;;;;;;20.07;14.33;;;3.70;99.90;;;;;;5056004;28;20210;-57
2020/12/11 04:42:51;;;;;;;16.77;12.87;;;3.70;99.90;;;;;;5056709;28;20519;-58
2020/12/11 04:45:17;;;;;;;16.60;12.17;;;3.70;99.90;;;;;;5056116;28;20172;-56
2020/12/11 04:47:43;;;;;;;17.90;12.17;;;3.70;99.90;;;;;;5056197;28;20202;-58
2020/12/11 04:50:11;;;;;;;16.53;12.13;;;3.50;99.90;;;;;;5055937;28;20171;-55
2020/12/11 04:52:39;;;;;;;16.30;12.53;;;3.20;99.90;;;;;;5055979;28;20203;-58
2020/12/11 04:55:05;;;;;;;18.83;12.90;;;3.20;99.90;;;;;;5055347;28;20179;-56
2020/12/11 04:57:32;;;;;;;15.83;12.83;;;3.10;99.90;;;;;;5055663;28;20201;-55
2020/12/11 04:59:58;;;;;;;18.27;13.57;;;3.30;99.90;;;;;;5056013;28;20183;-57
2020/12/11 05:02:28;;;;;;;16.80;12.43;;;3.40;99.90;;;;;;5060966;28;20246;-52
2020/12/11 05:04:54;;;;;;;15.80;12.07;;;3.60;99.90;;;;;;5068140;28;20246;-58
2020/12/11 05:07:20;;;;;;;16.73;12.23;;;3.60;99.90;;;;;;5055581;28;20283;-53
2020/12/11 05:09:55;;;;;;;16.43;13.03;;;3.60;99.90;;;;;;5055517;28;20229;-58
2020/12/11 05:12:22;;;;;;;16.47;12.73;;;3.50;99.90;;;;;;5057185;28;20269;-54
2020/12/11 05:14:53;;;;;;;18.83;13.87;;;3.60;99.90;;;;;;5070033;28;20198;-61
2020/12/11 05:17:26;;;;;;;15.73;12.27;;;3.60;99.90;;;;;;5048797;28;20688;-53
2020/12/11 05:19:53;;;;;;;17.13;13.30;;;3.70;99.90;;;;;;5064705;28;20175;-58
2020/12/11 05:22:19;;;;;;;18.93;13.83;;;3.80;99.90;;;;;;5069758;28;20214;-56
2020/12/11 05:24:53;;;;;;;17.50;12.97;;;3.80;99.90;;;;;;5058445;28;20179;-54
2020/12/11 05:27:41;;;;;;;16.67;13.53;;;3.90;99.90;;;;;;5068864;28;20194;-52
2020/12/11 05:30:07;;;;;;;18.10;13.57;;;4.00;99.90;;;;;;5067801;28;20641;-52
2020/12/11 05:32:47;;;;;;;26.37;19.73;;;4.10;99.90;;;;;;5058494;28;20225;-53
2020/12/11 05:35:21;;;;;;;18.80;13.90;;;4.20;99.90;;;;;;5034344;28;20202;-56
2020/12/11 05:38:01;;;;;;;19.97;14.33;;;4.20;99.90;;;;;;5033462;28;20230;-55
2020/12/11 05:40:37;;;;;;;20.10;14.13;;;4.20;99.90;;;;;;5033930;28;20199;-56
2020/12/11 05:43:16;;;;;;;38.70;29.27;;;4.20;99.90;;;;;;5034573;28;20175;-59
2020/12/11 05:45:53;;;;;;;26.00;19.03;;;4.20;99.90;;;;;;5034672;28;20180;-55
2020/12/11 05:48:21;;;;;;;21.37;16.53;;;4.20;99.90;;;;;;5035465;28;20203;-52
2020/12/11 05:50:46;;;;;;;21.53;15.03;;;4.20;99.90;;;;;;5034846;28;20549;-55
2020/12/11 05:53:12;;;;;;;20.13;14.63;;;4.10;99.90;;;;;;5034712;28;20226;-54
2020/12/11 05:55:38;;;;;;;20.33;14.67;;;4.00;99.90;;;;;;5034782;28;20168;-55
2020/12/11 05:58:06;;;;;;;20.80;15.00;;;3.90;99.90;;;;;;5034782;28;20192;-58
2020/12/11 06:00:32;;;;;;;19.80;14.53;;;4.60;99.90;;;;;;5034595;28;20660;-60
2020/12/11 06:02:59;;;;;;;20.47;14.40;;;3.80;99.90;;;;;;5034853;28;20172;-56
2020/12/11 06:05:24;;;;;;;19.67;14.60;;;3.80;99.90;;;;;;5034475;28;20543;-60
2020/12/11 06:07:51;;;;;;;19.73;14.60;;;3.70;99.90;;;;;;5033996;28;20739;-53
2020/12/11 06:10:19;;;;;;;19.80;13.63;;;3.70;99.90;;;;;;5034374;28;20176;-53
2020/12/11 06:12:45;;;;;;;22.97;16.23;;;3.70;99.90;;;;;;5034474;28;20176;-54
2020/12/11 06:15:14;;;;;;;20.90;14.47;;;3.70;99.90;;;;;;5034421;28;20306;-61
2020/12/11 06:17:46;;;;;;;22.57;15.10;;;3.70;99.90;;;;;;5034315;28;20203;-58
2020/12/11 06:20:14;;;;;;;18.77;13.70;;;3.70;99.90;;;;;;5034937;28;20191;-54
2020/12/11 06:22:44;;;;;;;20.27;14.23;;;3.80;99.90;;;;;;5035440;28;20172;-57
2020/12/11 06:25:28;;;;;;;19.57;13.70;;;3.80;99.90;;;;;;5034574;28;20199;-58
2020/12/11 06:27:55;;;;;;;21.33;14.23;;;3.70;99.90;;;;;;5034218;28;20199;-60
2020/12/11 06:30:29;;;;;;;20.73;13.77;;;3.70;99.90;;;;;;5034316;28;20310;-57
2020/12/11 06:32:55;;;;;;;18.70;12.67;;;3.80;99.90;;;;;;5034864;28;20496;-55
2020/12/11 06:35:21;;;;;;;17.13;12.93;;;3.70;99.90;;;;;;5034316;28;20631;-52
2020/12/11 06:37:47;;;;;;;19.93;13.83;;;3.60;99.90;;;;;;5034385;28;20221;-55
2020/12/11 06:40:13;;;;;;;17.83;12.57;;;3.50;99.90;;;;;;5033302;28;20551;-58
2020/12/11 06:42:41;;;;;;;17.30;12.57;;;3.60;99.90;;;;;;5033977;28;20655;-52
2020/12/11 06:45:25;;;;;;;17.97;12.63;;;3.70;99.90;;;;;;5033916;28;20199;-59
2020/12/11 06:47:59;;;;;;;15.77;11.87;;;3.70;99.90;;;;;;5034028;28;20762;-53
2020/12/11 06:50:32;;;;;;;15.33;11.13;;;3.70;99.90;;;;;;5034192;28;20254;-54
2020/12/11 06:52:59;;;;;;;14.03;10.63;;;3.70;99.90;;;;;;5034211;28;20539;-59
2020/12/11 06:55:50;;;;;;;14.57;10.60;;;3.70;99.90;;;;;;5034116;28;20187;-59
2020/12/11 06:58:19;;;;;;;16.07;10.90;;;3.60;99.90;;;;;;5022967;28;20218;-54
2020/12/11 07:00:57;;;;;;;14.20;10.60;;;3.50;99.90;;;;;;5033710;28;20200;-60
2020/12/11 07:03:25;;;;;;;15.17;11.00;;;3.40;99.90;;;;;;5033889;28;20182;-55
2020/12/11 07:06:01;;;;;;;14.90;10.50;;;3.30;99.90;;;;;;5033825;28;20176;-61
2020/12/11 07:08:27;;;;;;;16.67;11.53;;;3.20;99.90;;;;;;5033674;28;20199;-60
2020/12/11 07:10:53;;;;;;;14.90;10.40;;;3.00;99.90;;;;;;5033828;28;20195;-59
2020/12/11 07:13:19;;;;;;;14.77;10.77;;;3.00;99.90;;;;;;5040578;28;20654;-55
2020/12/11 07:15:45;;;;;;;16.07;10.63;;;2.90;99.90;;;;;;5040741;28;20586;-54
2020/12/11 07:18:15;;;;;;;15.67;10.80;;;2.90;99.90;;;;;;5051422;28;20662;-52
2020/12/11 07:20:48;;;;;;;13.23;10.07;;;3.00;99.90;;;;;;5035791;28;20195;-55
2020/12/11 07:23:16;;;;;;;15.83;10.70;;;2.90;99.90;;;;;;5035459;28;20191;-56
2020/12/11 07:25:42;;;;;;;16.93;10.70;;;2.90;99.90;;;;;;5036016;28;20191;-54
2020/12/11 07:28:07;;;;;;;15.67;10.40;;;2.90;99.90;;;;;;5050974;28;20245;-55
2020/12/11 07:30:33;;;;;;;15.63;10.57;;;2.90;99.90;;;;;;5041502;28;20179;-59
2020/12/11 07:32:59;;;;;;;14.67;10.43;;;2.80;99.90;;;;;;5043773;28;20184;-59
2020/12/11 07:35:25;;;;;;;16.27;10.77;;;2.80;99.90;;;;;;5052485;28;20219;-54
2020/12/11 07:37:55;;;;;;;17.07;11.17;;;2.90;99.90;;;;;;5057561;28;20542;-54
2020/12/11 07:40:22;;;;;;;17.83;11.27;;;2.90;99.90;;;;;;5047133;28;20218;-59
2020/12/11 07:42:49;;;;;;;15.97;10.30;;;2.90;99.90;;;;;;5037362;28;20445;-55
2020/12/11 07:45:36;;;;;;;18.30;12.10;;;3.00;99.90;;;;;;5038584;28;20591;-52
2020/12/11 07:48:03;;;;;;;16.20;10.80;;;3.00;99.90;;;;;;5037042;28;20698;-59
2020/12/11 07:50:30;;;;;;;17.03;11.60;;;3.10;99.90;;;;;;5037552;28;20179;-61
2020/12/11 07:52:57;;;;;;;14.77;10.27;;;3.20;99.90;;;;;;5037156;28;20317;-52
2020/12/11 07:55:26;;;;;;;15.43;10.63;;;3.30;99.90;;;;;;5037015;28;20194;-56
2020/12/11 07:57:56;;;;;;;17.37;10.60;;;3.50;99.90;;;;;;5036980;28;20234;-61
2020/12/11 08:00:22;;;;;;;18.47;11.43;;;3.60;99.90;;;;;;5037907;28;20555;-55
2020/12/11 08:02:56;;;;;;;17.00;11.23;;;3.60;99.90;;;;;;5039306;28;20631;-53
2020/12/11 08:05:23;;;;;;;18.63;12.13;;;3.70;99.90;;;;;;5037127;28;20207;-61
2020/12/11 08:07:50;;;;;;;17.63;12.33;;;3.70;99.90;;;;;;5037355;28;20700;-56
2020/12/11 08:10:18;;;;;;;19.80;13.37;;;3.70;99.90;;;;;;5037249;28;20178;-57
2020/12/11 08:12:44;;;;;;;19.33;12.97;;;3.60;99.90;;;;;;5036116;28;20180;-61
2020/12/11 08:15:12;;;;;;;17.20;11.90;;;3.60;99.90;;;;;;5035709;28;20176;-55
2020/12/11 08:17:40;;;;;;;18.93;12.83;;;3.70;99.90;;;;;;5036577;28;20199;-56
2020/12/11 08:20:07;;;;;;;20.37;13.97;;;3.70;99.90;;;;;;5036044;28;20188;-53
2020/12/11 08:22:38;;;;;;;17.83;13.00;;;3.70;99.90;;;;;;5035935;28;20539;-61
2020/12/11 08:25:22;;;;;;;19.10;13.93;;;3.60;99.90;;;;;;5035394;28;20233;-60
2020/12/11 08:27:48;;;;;;;19.83;14.77;;;3.60;99.90;;;;;;5035256;28;20263;-53
2020/12/11 08:30:15;;;;;;;21.10;15.67;;;3.50;99.90;;;;;;5034846;28;20592;-59
2020/12/11 08:32:42;;;;;;;23.60;16.10;;;3.50;99.90;;;;;;5036237;28;20582;-58
2020/12/11 08:35:19;;;;;;;20.87;14.97;;;3.50;99.90;;;;;;5035559;28;20207;-53
2020/12/11 08:37:55;;;;;;;22.23;16.03;;;3.50;99.90;;;;;;5035145;28;20282;-53
2020/12/11 08:40:22;;;;;;;22.90;16.53;;;3.60;99.90;;;;;;5034965;28;20209;-57
2020/12/11 08:46:17;;;;;;;22.53;16.73;;;3.60;99.90;;;;;;5035703;28;20179;-58
2020/12/11 08:49:10;;;;;;;23.80;17.27;;;3.40;99.90;;;;;;5035252;28;20234;-53
2020/12/11 08:51:36;;;;;;;24.40;17.83;;;3.20;99.90;;;;;;5034787;28;20500;-61
2020/12/11 08:54:05;;;;;;;24.97;18.40;;;3.20;99.90;;;;;;5036048;28;20172;-61
2020/12/11 08:56:31;;;;;;;26.23;18.00;;;3.20;99.90;;;;;;5051915;28;20175;-61
2020/12/11 08:58:57;;;;;;;29.87;19.83;;;3.10;99.90;;;;;;5054697;28;20179;-57
2020/12/11 09:01:23;;;;;;;30.63;19.93;;;3.20;99.90;;;;;;5054799;28;20203;-60
2020/12/11 09:03:48;;;;;;;31.30;20.33;;;3.20;99.90;;;;;;5054774;28;20248;-55
2020/12/11 09:06:14;;;;;;;30.43;19.33;;;3.10;99.90;;;;;;5054091;28;20171;-56
2020/12/11 09:08:39;;;;;;;31.50;19.67;;;3.10;99.90;;;;;;5054806;28;20203;-60
2020/12/11 09:11:05;;;;;;;26.93;19.50;;;3.20;99.90;;;;;;5036407;28;562269;-59
2020/12/11 09:13:30;;;;;;;32.63;21.70;;;3.20;99.90;;;;;;5055753;28;20175;-54
2020/12/11 09:15:56;;;;;;;30.63;20.63;;;3.20;99.90;;;;;;5055285;28;20182;-53
2020/12/11 09:18:23;;;;;;;32.83;21.57;;;3.00;99.90;;;;;;5055335;28;20203;-58
2020/12/11 09:20:48;;;;;;;32.17;21.37;;;3.00;99.90;;;;;;5055996;28;20195;-58
2020/12/11 09:23:14;;;;;;;32.23;21.17;;;3.00;99.90;;;;;;5055483;28;20172;-52
2020/12/11 09:25:39;;;;;;;30.93;20.40;;;3.00;99.90;;;;;;5055418;28;20526;-52
2020/12/11 09:28:10;;;;;;;30.43;21.17;;;3.10;99.90;;;;;;5056119;28;20201;-59
2020/12/11 09:30:37;;;;;;;35.13;22.40;;;3.00;99.90;;;;;;5056279;28;20190;-60
2020/12/11 09:33:15;;;;;;;28.50;19.70;;;3.10;99.90;;;;;;5055297;28;20261;-61
2020/12/11 09:35:40;;;;;;;28.53;19.50;;;3.10;99.90;;;;;;5055424;28;20182;-52
2020/12/11 09:38:06;;;;;;;29.27;20.17;;;3.20;99.90;;;;;;5055511;28;20259;-52
2020/12/11 09:40:46;;;;;;;29.97;19.83;;;3.30;99.90;;;;;;5054667;28;20210;-60
2020/12/11 09:48:21;;;;;;;24.60;17.53;;;3.40;99.90;;;;;;5054893;28;20186;-54
2020/12/11 09:56:22;;;;;;;22.10;15.73;;;3.50;99.90;;;;;;5054889;28;20246;-53
2020/12/11 09:58:49;;;;;;;21.13;14.70;;;3.60;99.90;;;;;;5054688;28;20198;-61
2020/12/11 10:01:19;;;;;;;20.87;14.47;;;3.70;99.90;;;;;;5055117;28;20586;-55
2020/12/11 10:03:44;;;;;;;23.03;15.87;;;3.60;99.90;;;;;;5056489;28;20178;-57
2020/12/11 10:06:10;;;;;;;22.30;16.37;;;3.50;99.90;;;;;;5033029;28;20183;-61
2020/12/11 10:08:35;;;;;;;20.37;15.00;;;3.50;99.90;;;;;;5052569;28;20656;-53
2020/12/11 10:11:01;;;;;;;20.07;14.77;;;3.50;99.90;;;;;;5054061;28;20224;-55
2020/12/11 10:13:27;;;;;;;23.13;16.20;;;3.50;99.90;;;;;;5054020;28;20186;-53
2020/12/11 10:15:53;;;;;;;20.10;14.93;;;3.50;99.90;;;;;;5054232;28;20262;-59
2020/12/11 10:18:18;;;;;;;17.50;13.10;;;3.60;99.90;;;;;;5054428;28;20233;-57
2020/12/11 10:20:44;;;;;;;17.97;13.73;;;3.60;99.90;;;;;;5053805;28;20202;-51
2020/12/11 10:23:09;;;;;;;19.40;14.13;;;3.60;99.90;;;;;;5055369;28;20160;-53
2020/12/11 10:25:38;;;;;;;17.83;13.73;;;3.50;99.90;;;;;;5054166;28;20175;-59
2020/12/11 10:28:04;;;;;;;16.90;12.70;;;3.50;99.90;;;;;;5054278;28;20199;-52
2020/12/11 10:30:29;;;;;;;19.60;13.77;;;3.50;99.90;;;;;;5054217;28;20178;-61
2020/12/11 10:32:56;;;;;;;18.90;14.07;;;3.60;99.90;;;;;;5054101;28;20202;-59
2020/12/11 10:35:21;;;;;;;19.73;14.47;;;3.60;99.90;;;;;;5054027;28;20240;-53
2020/12/11 10:37:47;;;;;;;18.17;13.10;;;3.70;99.90;;;;;;5054321;28;20199;-55
2020/12/11 10:40:12;;;;;;;14.60;12.07;;;3.50;99.90;;;;;;5056320;28;20508;-57
2020/12/11 10:42:38;;;;;;;17.50;12.90;;;3.40;99.90;;;;;;5053750;28;20177;-61
2020/12/11 10:45:04;;;;;;;17.17;13.17;;;3.30;99.90;;;;;;5053298;28;20259;-53
2020/12/11 10:47:30;;;;;;;18.77;13.90;;;3.20;99.90;;;;;;5053897;28;20671;-52
2020/12/11 10:49:55;;;;;;;18.00;12.80;;;3.20;99.90;;;;;;5053822;28;20202;-52
2020/12/11 10:52:21;;;;;;;18.30;13.37;;;3.20;99.90;;;;;;5053406;28;20602;-53
2020/12/11 10:54:47;;;;;;;18.10;12.83;;;3.10;99.90;;;;;;5053439;28;20211;-58
2020/12/11 10:57:14;;;;;;;18.07;12.97;;;3.20;99.90;;;;;;5055520;28;20201;-53
2020/12/11 10:59:39;;;;;;;19.23;13.13;;;3.20;99.90;;;;;;5053530;28;20186;-52
2020/12/11 11:02:05;;;;;;;16.73;12.47;;;3.10;99.90;;;;;;5053125;28;20295;-50
2020/12/11 11:04:31;;;;;;;18.20;12.93;;;3.10;99.90;;;;;;5053469;28;20171;-53
2020/12/11 11:07:01;;;;;;;17.43;12.50;;;3.20;99.90;;;;;;5053213;28;20186;-51
2020/12/11 11:09:45;;;;;;;16.23;12.33;;;3.30;99.90;;;;;;5053542;28;20264;-54
2020/12/11 11:12:35;;;;;;;18.40;12.50;;;3.50;99.90;;;;;;5045128;28;20653;-58
2020/12/11 11:20:35;;;;;;;16.17;11.70;;;3.20;99.90;;;;;;5033850;28;20217;-53
2020/12/11 11:28:10;;;;;;;17.00;12.30;;;3.40;99.90;;;;;;5032853;28;20216;-53
2020/12/11 11:30:36;;;;;;;15.83;11.77;;;3.50;99.90;;;;;;5032654;28;20207;-55
2020/12/11 11:33:01;;;;;;;15.70;11.93;;;3.60;99.90;;;;;;5034915;28;20176;-53
2020/12/11 11:35:30;;;;;;;17.10;13.33;;;3.50;99.90;;;;;;5033366;28;20180;-59
2020/12/11 11:37:56;;;;;;;16.97;12.67;;;3.50;99.90;;;;;;5033882;28;20207;-52
2020/12/11 11:40:23;;;;;;;14.13;10.70;;;3.60;99.90;;;;;;5031699;28;20229;-57
2020/12/11 11:42:49;;;;;;;16.27;12.57;;;3.60;99.90;;;;;;5033105;28;20192;-58
2020/12/11 11:45:17;;;;;;;15.97;11.70;;;3.60;99.90;;;;;;5033137;28;20310;-54
2020/12/11 11:47:47;;;;;;;15.00;11.47;;;3.60;99.90;;;;;;5033123;28;20279;-60
2020/12/11 11:55:13;;;;;;;14.33;11.07;;;3.60;99.90;;;;;;5051205;28;20180;-54
2020/12/11 11:57:40;;;;;;;17.10;12.23;;;3.40;99.90;;;;;;5035133;28;20191;-60
2020/12/11 12:00:07;;;;;;;14.23;10.80;;;3.20;99.90;;;;;;5052092;28;20179;-61
2020/12/11 12:02:33;;;;;;;15.77;11.20;;;3.20;99.90;;;;;;5052691;28;20182;-59
2020/12/11 12:04:59;;;;;;;16.10;11.13;;;3.10;99.90;;;;;;5053896;28;20171;-51
2020/12/11 12:07:25;;;;;;;12.23;9.63;;;3.10;99.90;;;;;;5055881;28;20566;-53
2020/12/11 12:09:52;;;;;;;15.10;11.33;;;3.00;99.90;;;;;;5056989;28;20167;-61
2020/12/11 12:12:17;;;;;;;14.50;10.83;;;3.10;99.90;;;;;;5055532;28;20678;-51
2020/12/11 12:14:45;;;;;;;14.17;10.57;;;3.20;99.90;;;;;;5050077;28;20200;-54
2020/12/11 12:17:10;;;;;;;15.27;11.23;;;3.30;99.90;;;;;;5037536;28;20208;-51
2020/12/11 12:19:41;;;;;;;14.23;10.57;;;3.40;99.90;;;;;;5034711;28;20241;-53
2020/12/11 12:29:54;;;;;;;15.40;11.97;;;3.70;99.90;;;;;;5036018;28;20184;-61
2020/12/11 12:32:22;;;;;;;14.23;10.87;;;3.70;99.90;;;;;;5037604;28;20187;-55
2020/12/11 12:45:06;;;;;;;14.20;9.70;;;3.50;99.90;;;;;;5036269;28;20231;-61
2020/12/11 12:47:32;;;;;;;12.93;9.77;;;3.60;99.90;;;;;;5035754;28;20199;-54
2020/12/11 12:49:59;;;;;;;14.60;10.90;;;3.70;99.90;;;;;;5037742;28;20255;-54
2020/12/11 12:52:25;;;;;;;14.13;9.43;;;3.70;99.90;;;;;;5036941;28;20176;-53
2020/12/11 12:54:51;;;;;;;15.00;10.47;;;3.80;99.90;;;;;;5036097;28;20168;-60
2020/12/11 13:00:01;;;;;;;13.83;10.37;;;3.90;99.90;;;;;;5035940;28;20582;-56
2020/12/11 13:02:46;;;;;;;13.27;9.53;;;4.00;99.90;;;;;;5036750;28;20198;-59
2020/12/11 13:05:11;;;;;;;13.20;9.90;;;4.10;99.90;;;;;;5036443;28;20180;-52
2020/12/11 13:07:37;;;;;;;13.63;10.23;;;4.10;99.90;;;;;;5036505;28;20192;-54
2020/12/11 13:10:06;;;;;;;12.67;9.83;;;4.20;99.90;;;;;;5035955;28;20254;-53
2020/12/11 13:12:31;;;;;;;12.37;9.57;;;4.40;99.90;;;;;;5035674;28;20194;-52
2020/12/11 13:14:57;;;;;;;12.93;9.63;;;4.50;99.90;;;;;;5035208;28;20258;-51
2020/12/11 13:17:22;;;;;;;14.20;10.23;;;4.60;99.90;;;;;;5035496;28;20218;-51
2020/12/11 13:19:48;;;;;;;18.60;13.47;;;4.70;99.90;;;;;;5035941;28;20168;-60
2020/12/11 13:22:31;;;;;;;12.73;9.47;;;4.50;99.90;;;;;;5036046;28;20204;-52
2020/12/11 13:27:42;;;;;;;12.83;9.33;;;4.40;99.90;;;;;;5036160;28;20769;-53
2020/12/11 13:30:07;;;;;;;13.83;11.00;;;4.20;99.90;;;;;;5055380;28;20159;-57
2020/12/11 13:32:33;;;;;;;17.87;14.70;;;4.10;99.90;;;;;;5055839;28;20626;-59
2020/12/11 13:34:59;;;;;;;12.37;9.17;;;4.00;99.90;;;;;;5054901;28;20175;-56